sensor_id;sensor_type;location;lat;lon;timestamp;P1;durP1;ratioP1;P2;durP2;ratioP2
32872;SDS011;19224;52.462;16.898;2022-07-23T00:00:21;5.60;;;5.10;;
32872;SDS011;19224;52.462;16.898;2022-07-23T00:02:53;6.47;;;5.78;;
32872;SDS011;19224;52.462;16.898;2022-07-23T00:05:24;10.43;;;6.03;;
32872;SDS011;19224;52.462;16.898;2022-07-23T00:07:55;6.22;;;5.65;;
32872;SDS011;19224;52.462;16.898;2022-07-23T00:10:25;13.00;;;6.20;;
32872;SDS011;19224;52.462;16.898;2022-07-23T00:12:56;6.70;;;6.10;;
32872;SDS011;19224;52.462;16.898;2022-07-23T00:15:27;6.53;;;5.80;;
32872;SDS011;19224;52.462;16.898;2022-07-23T00:17:57;6.25;;;5.65;;
32872;SDS011;19224;52.462;16.898;2022-07-23T00:20:28;6.00;;;5.30;;
32872;SDS011;19224;52.462;16.898;2022-07-23T00:23:00;6.30;;;5.70;;
32872;SDS011;19224;52.462;16.898;2022-07-23T00:25:30;7.33;;;5.35;;
32872;SDS011;19224;52.462;16.898;2022-07-23T00:28:02;6.20;;;5.60;;
32872;SDS011;19224;52.462;16.898;2022-07-23T00:30:34;6.55;;;5.85;;
32872;SDS011;19224;52.462;16.898;2022-07-23T00:33:06;9.13;;;6.28;;
32872;SDS011;19224;52.462;16.898;2022-07-23T00:35:39;9.05;;;6.17;;
32872;SDS011;19224;52.462;16.898;2022-07-23T00:38:10;7.03;;;5.60;;
32872;SDS011;19224;52.462;16.898;2022-07-23T00:40:41;7.00;;;6.30;;
32872;SDS011;19224;52.462;16.898;2022-07-23T00:43:11;9.15;;;6.78;;
32872;SDS011;19224;52.462;16.898;2022-07-23T00:45:42;7.75;;;6.12;;
32872;SDS011;19224;52.462;16.898;2022-07-23T00:48:13;8.98;;;6.00;;
32872;SDS011;19224;52.462;16.898;2022-07-23T00:50:43;7.03;;;6.35;;
32872;SDS011;19224;52.462;16.898;2022-07-23T00:53:15;7.75;;;6.17;;
32872;SDS011;19224;52.462;16.898;2022-07-23T00:55:48;9.68;;;6.53;;
32872;SDS011;19224;52.462;16.898;2022-07-23T00:58:20;7.05;;;6.28;;
32872;SDS011;19224;52.462;16.898;2022-07-23T01:00:50;7.40;;;6.70;;
32872;SDS011;19224;52.462;16.898;2022-07-23T01:03:21;7.12;;;6.42;;
32872;SDS011;19224;52.462;16.898;2022-07-23T01:05:51;8.18;;;6.55;;
32872;SDS011;19224;52.462;16.898;2022-07-23T01:08:24;9.00;;;6.53;;
32872;SDS011;19224;52.462;16.898;2022-07-23T01:10:54;7.95;;;6.50;;
32872;SDS011;19224;52.462;16.898;2022-07-23T01:13:26;10.80;;;6.62;;
32872;SDS011;19224;52.462;16.898;2022-07-23T01:15:56;8.28;;;6.67;;
32872;SDS011;19224;52.462;16.898;2022-07-23T01:18:26;7.92;;;6.50;;
32872;SDS011;19224;52.462;16.898;2022-07-23T01:20:57;8.98;;;6.60;;
32872;SDS011;19224;52.462;16.898;2022-07-23T01:23:27;8.03;;;6.78;;
32872;SDS011;19224;52.462;16.898;2022-07-23T01:25:58;6.78;;;6.08;;
32872;SDS011;19224;52.462;16.898;2022-07-23T01:28:28;7.03;;;6.30;;
32872;SDS011;19224;52.462;16.898;2022-07-23T01:30:59;6.83;;;6.12;;
32872;SDS011;19224;52.462;16.898;2022-07-23T01:33:30;6.67;;;6.08;;
32872;SDS011;19224;52.462;16.898;2022-07-23T01:36:01;7.50;;;6.45;;
32872;SDS011;19224;52.462;16.898;2022-07-23T01:38:32;7.67;;;6.20;;
32872;SDS011;19224;52.462;16.898;2022-07-23T01:41:02;7.85;;;6.55;;
32872;SDS011;19224;52.462;16.898;2022-07-23T01:43:33;6.95;;;6.25;;
32872;SDS011;19224;52.462;16.898;2022-07-23T01:46:04;9.40;;;6.35;;
32872;SDS011;19224;52.462;16.898;2022-07-23T01:48:34;8.33;;;6.55;;
32872;SDS011;19224;52.462;16.898;2022-07-23T01:51:05;8.40;;;6.50;;
32872;SDS011;19224;52.462;16.898;2022-07-23T01:53:38;10.25;;;6.62;;
32872;SDS011;19224;52.462;16.898;2022-07-23T01:56:08;7.10;;;5.83;;
32872;SDS011;19224;52.462;16.898;2022-07-23T01:58:39;7.75;;;6.08;;
32872;SDS011;19224;52.462;16.898;2022-07-23T02:01:10;8.73;;;6.33;;
32872;SDS011;19224;52.462;16.898;2022-07-23T02:03:40;7.12;;;6.30;;
32872;SDS011;19224;52.462;16.898;2022-07-23T02:06:11;8.48;;;6.50;;
32872;SDS011;19224;52.462;16.898;2022-07-23T02:08:41;8.63;;;6.62;;
32872;SDS011;19224;52.462;16.898;2022-07-23T02:11:12;8.85;;;6.60;;
32872;SDS011;19224;52.462;16.898;2022-07-23T02:13:42;7.33;;;6.08;;
32872;SDS011;19224;52.462;16.898;2022-07-23T02:16:13;7.67;;;6.60;;
32872;SDS011;19224;52.462;16.898;2022-07-23T02:18:44;8.15;;;6.58;;
32872;SDS011;19224;52.462;16.898;2022-07-23T02:21:15;7.83;;;6.92;;
32872;SDS011;19224;52.462;16.898;2022-07-23T02:23:46;7.83;;;6.90;;
32872;SDS011;19224;52.462;16.898;2022-07-23T02:26:17;7.65;;;6.85;;
32872;SDS011;19224;52.462;16.898;2022-07-23T02:28:47;10.28;;;7.03;;
32872;SDS011;19224;52.462;16.898;2022-07-23T02:31:18;7.58;;;6.80;;
32872;SDS011;19224;52.462;16.898;2022-07-23T02:33:48;9.10;;;6.83;;
32872;SDS011;19224;52.462;16.898;2022-07-23T02:36:19;7.53;;;6.58;;
32872;SDS011;19224;52.462;16.898;2022-07-23T02:38:51;7.50;;;6.35;;
32872;SDS011;19224;52.462;16.898;2022-07-23T02:41:22;8.28;;;7.10;;
32872;SDS011;19224;52.462;16.898;2022-07-23T02:43:52;8.33;;;6.70;;
32872;SDS011;19224;52.462;16.898;2022-07-23T02:46:23;7.87;;;6.42;;
32872;SDS011;19224;52.462;16.898;2022-07-23T02:48:54;9.73;;;6.62;;
32872;SDS011;19224;52.462;16.898;2022-07-23T02:51:25;7.53;;;6.12;;
32872;SDS011;19224;52.462;16.898;2022-07-23T02:53:56;8.53;;;6.85;;
32872;SDS011;19224;52.462;16.898;2022-07-23T02:56:27;7.65;;;6.67;;
32872;SDS011;19224;52.462;16.898;2022-07-23T02:58:59;8.80;;;6.83;;
32872;SDS011;19224;52.462;16.898;2022-07-23T03:01:30;8.30;;;6.75;;
32872;SDS011;19224;52.462;16.898;2022-07-23T03:04:01;11.68;;;7.10;;
32872;SDS011;19224;52.462;16.898;2022-07-23T03:06:32;8.83;;;6.78;;
32872;SDS011;19224;52.462;16.898;2022-07-23T03:09:02;11.18;;;6.90;;
32872;SDS011;19224;52.462;16.898;2022-07-23T03:11:35;8.98;;;6.47;;
32872;SDS011;19224;52.462;16.898;2022-07-23T03:14:05;10.15;;;6.92;;
32872;SDS011;19224;52.462;16.898;2022-07-23T03:16:37;13.75;;;7.17;;
32872;SDS011;19224;52.462;16.898;2022-07-23T03:19:08;11.57;;;7.10;;
32872;SDS011;19224;52.462;16.898;2022-07-23T03:21:41;14.45;;;7.83;;
32872;SDS011;19224;52.462;16.898;2022-07-23T03:24:12;10.40;;;7.58;;
32872;SDS011;19224;52.462;16.898;2022-07-23T03:26:45;11.12;;;7.33;;
32872;SDS011;19224;52.462;16.898;2022-07-23T03:29:16;12.45;;;7.03;;
32872;SDS011;19224;52.462;16.898;2022-07-23T03:31:47;7.80;;;6.97;;
32872;SDS011;19224;52.462;16.898;2022-07-23T03:34:18;10.35;;;7.20;;
32872;SDS011;19224;52.462;16.898;2022-07-23T03:36:49;8.28;;;7.40;;
32872;SDS011;19224;52.462;16.898;2022-07-23T03:39:19;11.88;;;7.35;;
32872;SDS011;19224;52.462;16.898;2022-07-23T03:41:49;12.10;;;8.15;;
32872;SDS011;19224;52.462;16.898;2022-07-23T03:44:20;9.98;;;7.22;;
32872;SDS011;19224;52.462;16.898;2022-07-23T03:46:51;9.65;;;7.92;;
32872;SDS011;19224;52.462;16.898;2022-07-23T03:49:21;8.70;;;7.72;;
32872;SDS011;19224;52.462;16.898;2022-07-23T03:51:51;11.12;;;7.67;;
32872;SDS011;19224;52.462;16.898;2022-07-23T03:54:23;13.80;;;7.87;;
32872;SDS011;19224;52.462;16.898;2022-07-23T03:56:53;8.65;;;7.40;;
32872;SDS011;19224;52.462;16.898;2022-07-23T03:59:24;11.70;;;7.72;;
32872;SDS011;19224;52.462;16.898;2022-07-23T04:01:55;8.63;;;6.90;;
32872;SDS011;19224;52.462;16.898;2022-07-23T04:04:26;7.95;;;6.67;;
32872;SDS011;19224;52.462;16.898;2022-07-23T04:06:57;10.58;;;7.17;;
32872;SDS011;19224;52.462;16.898;2022-07-23T04:09:29;8.78;;;7.45;;
32872;SDS011;19224;52.462;16.898;2022-07-23T04:12:00;8.83;;;7.90;;
32872;SDS011;19224;52.462;16.898;2022-07-23T04:14:31;10.00;;;7.40;;
32872;SDS011;19224;52.462;16.898;2022-07-23T04:17:02;11.38;;;7.53;;
32872;SDS011;19224;52.462;16.898;2022-07-23T04:19:33;12.00;;;7.28;;
32872;SDS011;19224;52.462;16.898;2022-07-23T04:22:06;9.38;;;7.53;;
32872;SDS011;19224;52.462;16.898;2022-07-23T04:24:38;11.05;;;7.30;;
32872;SDS011;19224;52.462;16.898;2022-07-23T04:27:10;9.55;;;7.12;;
32872;SDS011;19224;52.462;16.898;2022-07-23T04:29:41;9.75;;;7.80;;
32872;SDS011;19224;52.462;16.898;2022-07-23T04:32:11;10.58;;;7.90;;
32872;SDS011;19224;52.462;16.898;2022-07-23T04:34:41;10.18;;;7.67;;
32872;SDS011;19224;52.462;16.898;2022-07-23T04:37:12;11.20;;;7.85;;
32872;SDS011;19224;52.462;16.898;2022-07-23T04:39:44;11.57;;;7.25;;
32872;SDS011;19224;52.462;16.898;2022-07-23T04:42:15;9.43;;;7.50;;
32872;SDS011;19224;52.462;16.898;2022-07-23T04:44:45;8.58;;;7.33;;
32872;SDS011;19224;52.462;16.898;2022-07-23T04:47:16;10.78;;;7.87;;
32872;SDS011;19224;52.462;16.898;2022-07-23T04:49:47;15.32;;;8.73;;
32872;SDS011;19224;52.462;16.898;2022-07-23T04:52:18;12.05;;;7.70;;
32872;SDS011;19224;52.462;16.898;2022-07-23T04:54:48;10.93;;;8.03;;
32872;SDS011;19224;52.462;16.898;2022-07-23T04:57:19;12.43;;;8.60;;
32872;SDS011;19224;52.462;16.898;2022-07-23T04:59:49;11.50;;;7.92;;
32872;SDS011;19224;52.462;16.898;2022-07-23T05:02:20;9.70;;;7.97;;
32872;SDS011;19224;52.462;16.898;2022-07-23T05:04:51;9.20;;;8.25;;
32872;SDS011;19224;52.462;16.898;2022-07-23T05:07:22;11.50;;;7.67;;
32872;SDS011;19224;52.462;16.898;2022-07-23T05:09:53;8.68;;;7.78;;
32872;SDS011;19224;52.462;16.898;2022-07-23T05:12:24;14.53;;;8.55;;
32872;SDS011;19224;52.462;16.898;2022-07-23T05:14:55;11.50;;;8.78;;
32872;SDS011;19224;52.462;16.898;2022-07-23T05:17:26;16.50;;;9.25;;
32872;SDS011;19224;52.462;16.898;2022-07-23T05:19:57;13.05;;;8.60;;
32872;SDS011;19224;52.462;16.898;2022-07-23T05:22:28;10.85;;;8.25;;
32872;SDS011;19224;52.462;16.898;2022-07-23T05:24:59;10.48;;;8.75;;
32872;SDS011;19224;52.462;16.898;2022-07-23T05:27:29;11.03;;;8.63;;
32872;SDS011;19224;52.462;16.898;2022-07-23T05:30:00;12.03;;;8.75;;
32872;SDS011;19224;52.462;16.898;2022-07-23T05:32:32;14.87;;;8.93;;
32872;SDS011;19224;52.462;16.898;2022-07-23T05:35:05;13.25;;;8.40;;
32872;SDS011;19224;52.462;16.898;2022-07-23T05:37:36;11.78;;;8.98;;
32872;SDS011;19224;52.462;16.898;2022-07-23T05:40:10;9.65;;;8.33;;
32872;SDS011;19224;52.462;16.898;2022-07-23T05:42:41;11.00;;;8.70;;
32872;SDS011;19224;52.462;16.898;2022-07-23T05:45:11;12.35;;;10.43;;
32872;SDS011;19224;52.462;16.898;2022-07-23T05:47:48;10.15;;;8.98;;
32872;SDS011;19224;52.462;16.898;2022-07-23T05:50:16;9.40;;;8.30;;
32872;SDS011;19224;52.462;16.898;2022-07-23T05:52:47;12.50;;;8.80;;
32872;SDS011;19224;52.462;16.898;2022-07-23T05:55:18;15.95;;;12.65;;
32872;SDS011;19224;52.462;16.898;2022-07-23T05:57:49;13.25;;;10.82;;
32872;SDS011;19224;52.462;16.898;2022-07-23T06:00:20;13.45;;;8.73;;
32872;SDS011;19224;52.462;16.898;2022-07-23T06:02:51;10.82;;;8.10;;
32872;SDS011;19224;52.462;16.898;2022-07-23T06:05:21;10.32;;;7.58;;
32872;SDS011;19224;52.462;16.898;2022-07-23T06:07:53;10.32;;;8.33;;
32872;SDS011;19224;52.462;16.898;2022-07-23T06:10:24;9.30;;;8.15;;
32872;SDS011;19224;52.462;16.898;2022-07-23T06:12:55;11.60;;;7.83;;
32872;SDS011;19224;52.462;16.898;2022-07-23T06:15:26;10.80;;;8.18;;
32872;SDS011;19224;52.462;16.898;2022-07-23T06:17:57;12.30;;;8.28;;
32872;SDS011;19224;52.462;16.898;2022-07-23T06:20:28;12.65;;;8.03;;
32872;SDS011;19224;52.462;16.898;2022-07-23T06:23:00;9.28;;;8.35;;
32872;SDS011;19224;52.462;16.898;2022-07-23T06:25:31;9.78;;;7.83;;
32872;SDS011;19224;52.462;16.898;2022-07-23T06:28:01;10.72;;;7.95;;
32872;SDS011;19224;52.462;16.898;2022-07-23T06:30:32;10.53;;;7.62;;
32872;SDS011;19224;52.462;16.898;2022-07-23T06:33:03;10.53;;;8.05;;
32872;SDS011;19224;52.462;16.898;2022-07-23T06:35:34;10.30;;;7.42;;
32872;SDS011;19224;52.462;16.898;2022-07-23T06:38:06;10.25;;;7.42;;
32872;SDS011;19224;52.462;16.898;2022-07-23T06:40:37;7.10;;;6.40;;
32872;SDS011;19224;52.462;16.898;2022-07-23T06:43:09;7.83;;;6.25;;
32872;SDS011;19224;52.462;16.898;2022-07-23T06:45:39;9.95;;;6.53;;
32872;SDS011;19224;52.462;16.898;2022-07-23T06:48:10;8.25;;;6.33;;
32872;SDS011;19224;52.462;16.898;2022-07-23T06:50:41;8.68;;;6.45;;
32872;SDS011;19224;52.462;16.898;2022-07-23T06:53:12;7.53;;;6.30;;
32872;SDS011;19224;52.462;16.898;2022-07-23T06:55:43;8.58;;;6.70;;
32872;SDS011;19224;52.462;16.898;2022-07-23T06:58:13;6.65;;;5.62;;
32872;SDS011;19224;52.462;16.898;2022-07-23T07:00:46;7.53;;;5.70;;
32872;SDS011;19224;52.462;16.898;2022-07-23T07:03:17;7.10;;;4.90;;
32872;SDS011;19224;52.462;16.898;2022-07-23T07:05:48;6.78;;;5.33;;
32872;SDS011;19224;52.462;16.898;2022-07-23T07:08:19;10.55;;;5.20;;
32872;SDS011;19224;52.462;16.898;2022-07-23T07:10:50;9.13;;;5.40;;
32872;SDS011;19224;52.462;16.898;2022-07-23T07:13:21;8.85;;;5.62;;
32872;SDS011;19224;52.462;16.898;2022-07-23T07:15:52;5.85;;;5.22;;
32872;SDS011;19224;52.462;16.898;2022-07-23T07:18:22;8.20;;;5.42;;
32872;SDS011;19224;52.462;16.898;2022-07-23T07:20:52;6.28;;;5.67;;
32872;SDS011;19224;52.462;16.898;2022-07-23T07:23:23;8.08;;;5.90;;
32872;SDS011;19224;52.462;16.898;2022-07-23T07:28:44;9.68;;;5.47;;
32872;SDS011;19224;52.462;16.898;2022-07-23T07:31:14;6.60;;;5.65;;
32872;SDS011;19224;52.462;16.898;2022-07-23T07:33:45;5.95;;;5.33;;
32872;SDS011;19224;52.462;16.898;2022-07-23T07:36:16;5.80;;;5.17;;
32872;SDS011;19224;52.462;16.898;2022-07-23T07:38:46;8.70;;;5.42;;
32872;SDS011;19224;52.462;16.898;2022-07-23T07:41:17;9.45;;;5.40;;
32872;SDS011;19224;52.462;16.898;2022-07-23T07:43:49;8.88;;;5.65;;
32872;SDS011;19224;52.462;16.898;2022-07-23T07:46:20;8.95;;;5.83;;
32872;SDS011;19224;52.462;16.898;2022-07-23T07:48:51;7.87;;;5.60;;
32872;SDS011;19224;52.462;16.898;2022-07-23T07:51:23;6.78;;;5.67;;
32872;SDS011;19224;52.462;16.898;2022-07-23T07:53:55;6.00;;;5.40;;
32872;SDS011;19224;52.462;16.898;2022-07-23T07:56:26;6.87;;;5.72;;
32872;SDS011;19224;52.462;16.898;2022-07-23T07:58:56;6.95;;;5.85;;
32872;SDS011;19224;52.462;16.898;2022-07-23T08:01:28;6.92;;;5.50;;
32872;SDS011;19224;52.462;16.898;2022-07-23T08:03:59;12.10;;;5.72;;
32872;SDS011;19224;52.462;16.898;2022-07-23T08:06:30;7.90;;;6.00;;
32872;SDS011;19224;52.462;16.898;2022-07-23T08:09:01;6.97;;;5.60;;
32872;SDS011;19224;52.462;16.898;2022-07-23T08:11:31;11.50;;;6.47;;
32872;SDS011;19224;52.462;16.898;2022-07-23T08:14:03;7.65;;;6.30;;
32872;SDS011;19224;52.462;16.898;2022-07-23T08:16:33;6.22;;;5.62;;
32872;SDS011;19224;52.462;16.898;2022-07-23T08:19:04;6.37;;;5.35;;
32872;SDS011;19224;52.462;16.898;2022-07-23T08:21:36;9.43;;;6.12;;
32872;SDS011;19224;52.462;16.898;2022-07-23T08:24:06;10.72;;;5.83;;
32872;SDS011;19224;52.462;16.898;2022-07-23T08:26:36;10.05;;;5.78;;
32872;SDS011;19224;52.462;16.898;2022-07-23T08:29:07;7.72;;;6.08;;
32872;SDS011;19224;52.462;16.898;2022-07-23T08:31:38;9.75;;;5.90;;
32872;SDS011;19224;52.462;16.898;2022-07-23T08:34:10;7.78;;;6.10;;
32872;SDS011;19224;52.462;16.898;2022-07-23T08:36:40;9.38;;;6.20;;
32872;SDS011;19224;52.462;16.898;2022-07-23T08:39:11;9.88;;;6.17;;
32872;SDS011;19224;52.462;16.898;2022-07-23T08:41:41;7.37;;;6.33;;
32872;SDS011;19224;52.462;16.898;2022-07-23T08:44:15;10.90;;;6.58;;
32872;SDS011;19224;52.462;16.898;2022-07-23T08:46:47;7.28;;;6.47;;
32872;SDS011;19224;52.462;16.898;2022-07-23T08:49:18;7.47;;;6.40;;
32872;SDS011;19224;52.462;16.898;2022-07-23T08:51:49;9.15;;;6.42;;
32872;SDS011;19224;52.462;16.898;2022-07-23T08:54:22;7.05;;;6.33;;
32872;SDS011;19224;52.462;16.898;2022-07-23T08:56:52;9.43;;;6.95;;
32872;SDS011;19224;52.462;16.898;2022-07-23T08:59:23;10.72;;;7.22;;
32872;SDS011;19224;52.462;16.898;2022-07-23T09:01:55;6.95;;;6.22;;
32872;SDS011;19224;52.462;16.898;2022-07-23T09:04:27;7.00;;;6.30;;
32872;SDS011;19224;52.462;16.898;2022-07-23T09:06:58;6.87;;;6.20;;
32872;SDS011;19224;52.462;16.898;2022-07-23T09:09:30;7.00;;;6.20;;
32872;SDS011;19224;52.462;16.898;2022-07-23T09:12:07;8.38;;;6.65;;
32872;SDS011;19224;52.462;16.898;2022-07-23T09:14:39;9.38;;;6.53;;
32872;SDS011;19224;52.462;16.898;2022-07-23T09:17:15;16.20;;;8.38;;
32872;SDS011;19224;52.462;16.898;2022-07-23T09:19:54;8.80;;;6.70;;
32872;SDS011;19224;52.462;16.898;2022-07-23T09:22:30;8.18;;;6.62;;
32872;SDS011;19224;52.462;16.898;2022-07-23T09:25:12;7.17;;;6.37;;
32872;SDS011;19224;52.462;16.898;2022-07-23T09:30:31;7.58;;;6.62;;
32872;SDS011;19224;52.462;16.898;2022-07-23T09:35:51;8.08;;;6.80;;
32872;SDS011;19224;52.462;16.898;2022-07-23T09:38:24;9.90;;;7.47;;
32872;SDS011;19224;52.462;16.898;2022-07-23T09:41:07;8.43;;;7.50;;
32872;SDS011;19224;52.462;16.898;2022-07-23T09:43:42;10.68;;;7.47;;
32872;SDS011;19224;52.462;16.898;2022-07-23T09:46:21;10.03;;;7.78;;
32872;SDS011;19224;52.462;16.898;2022-07-23T09:48:57;7.87;;;7.08;;
32872;SDS011;19224;52.462;16.898;2022-07-23T09:51:30;9.00;;;7.00;;
32872;SDS011;19224;52.462;16.898;2022-07-23T09:54:06;9.55;;;7.92;;
32872;SDS011;19224;52.462;16.898;2022-07-23T09:56:41;10.95;;;7.45;;
32872;SDS011;19224;52.462;16.898;2022-07-23T09:59:14;8.50;;;7.50;;
32872;SDS011;19224;52.462;16.898;2022-07-23T10:01:47;9.73;;;8.13;;
32872;SDS011;19224;52.462;16.898;2022-07-23T10:04:19;8.90;;;7.55;;
32872;SDS011;19224;52.462;16.898;2022-07-23T10:06:53;9.28;;;7.58;;
32872;SDS011;19224;52.462;16.898;2022-07-23T10:09:28;7.67;;;6.87;;
32872;SDS011;19224;52.462;16.898;2022-07-23T10:12:11;7.87;;;7.08;;
32872;SDS011;19224;52.462;16.898;2022-07-23T10:14:43;9.73;;;6.97;;
32872;SDS011;19224;52.462;16.898;2022-07-23T10:17:15;8.60;;;7.70;;
32872;SDS011;19224;52.462;16.898;2022-07-23T10:19:47;7.60;;;6.83;;
32872;SDS011;19224;52.462;16.898;2022-07-23T10:22:29;10.45;;;7.15;;
32872;SDS011;19224;52.462;16.898;2022-07-23T10:25:09;9.00;;;7.03;;
32872;SDS011;19224;52.462;16.898;2022-07-23T10:27:50;8.53;;;7.05;;
32872;SDS011;19224;52.462;16.898;2022-07-23T10:31:07;7.58;;;6.78;;
32872;SDS011;19224;52.462;16.898;2022-07-23T10:34:12;16.62;;;13.50;;
32872;SDS011;19224;52.462;16.898;2022-07-23T10:36:51;9.23;;;7.03;;
32872;SDS011;19224;52.462;16.898;2022-07-23T10:39:31;8.45;;;6.80;;
32872;SDS011;19224;52.462;16.898;2022-07-23T10:42:11;7.12;;;6.30;;
32872;SDS011;19224;52.462;16.898;2022-07-23T10:44:44;8.10;;;6.85;;
32872;SDS011;19224;52.462;16.898;2022-07-23T10:47:32;11.28;;;6.92;;
32872;SDS011;19224;52.462;16.898;2022-07-23T10:50:23;10.20;;;7.42;;
32872;SDS011;19224;52.462;16.898;2022-07-23T10:56:09;14.98;;;8.10;;
32872;SDS011;19224;52.462;16.898;2022-07-23T10:58:46;8.00;;;7.20;;
32872;SDS011;19224;52.462;16.898;2022-07-23T11:04:12;9.63;;;7.12;;
32872;SDS011;19224;52.462;16.898;2022-07-23T11:09:30;14.93;;;11.25;;
32872;SDS011;19224;52.462;16.898;2022-07-23T11:15:12;10.95;;;7.50;;
32872;SDS011;19224;52.462;16.898;2022-07-23T11:20:35;10.88;;;7.12;;
32872;SDS011;19224;52.462;16.898;2022-07-23T11:23:06;8.05;;;7.25;;
32872;SDS011;19224;52.462;16.898;2022-07-23T11:25:58;8.40;;;7.15;;
32872;SDS011;19224;52.462;16.898;2022-07-23T11:28:48;8.95;;;7.53;;
32872;SDS011;19224;52.462;16.898;2022-07-23T11:31:23;7.15;;;6.53;;
32872;SDS011;19224;52.462;16.898;2022-07-23T11:37:06;9.55;;;8.25;;
32872;SDS011;19224;52.462;16.898;2022-07-23T11:39:38;9.50;;;7.42;;
32872;SDS011;19224;52.462;16.898;2022-07-23T11:42:16;8.45;;;6.87;;
32872;SDS011;19224;52.462;16.898;2022-07-23T11:44:47;8.58;;;7.30;;
32872;SDS011;19224;52.462;16.898;2022-07-23T11:47:23;8.55;;;6.80;;
32872;SDS011;19224;52.462;16.898;2022-07-23T11:49:59;9.43;;;7.30;;
32872;SDS011;19224;52.462;16.898;2022-07-23T11:52:34;7.95;;;7.12;;
32872;SDS011;19224;52.462;16.898;2022-07-23T11:55:07;8.38;;;7.58;;
32872;SDS011;19224;52.462;16.898;2022-07-23T11:57:40;6.97;;;6.33;;
32872;SDS011;19224;52.462;16.898;2022-07-23T12:00:17;13.43;;;9.50;;
32872;SDS011;19224;52.462;16.898;2022-07-23T12:02:55;6.60;;;6.00;;
32872;SDS011;19224;52.462;16.898;2022-07-23T12:05:33;7.87;;;5.95;;
32872;SDS011;19224;52.462;16.898;2022-07-23T12:08:06;7.03;;;6.40;;
32872;SDS011;19224;52.462;16.898;2022-07-23T12:10:41;9.70;;;6.20;;
32872;SDS011;19224;52.462;16.898;2022-07-23T12:13:18;7.53;;;5.90;;
32872;SDS011;19224;52.462;16.898;2022-07-23T12:15:57;7.90;;;5.70;;
32872;SDS011;19224;52.462;16.898;2022-07-23T12:18:37;7.33;;;6.35;;
32872;SDS011;19224;52.462;16.898;2022-07-23T12:21:12;9.10;;;5.70;;
32872;SDS011;19224;52.462;16.898;2022-07-23T12:23:49;6.72;;;5.70;;
32872;SDS011;19224;52.462;16.898;2022-07-23T12:26:31;8.65;;;5.80;;
32872;SDS011;19224;52.462;16.898;2022-07-23T12:29:09;7.40;;;5.33;;
32872;SDS011;19224;52.462;16.898;2022-07-23T12:31:40;5.70;;;5.20;;
32872;SDS011;19224;52.462;16.898;2022-07-23T12:34:15;8.40;;;7.45;;
32872;SDS011;19224;52.462;16.898;2022-07-23T12:36:46;10.98;;;9.03;;
32872;SDS011;19224;52.462;16.898;2022-07-23T12:39:30;6.58;;;5.20;;
32872;SDS011;19224;52.462;16.898;2022-07-23T12:42:02;6.95;;;5.30;;
32872;SDS011;19224;52.462;16.898;2022-07-23T12:44:35;8.03;;;5.70;;
32872;SDS011;19224;52.462;16.898;2022-07-23T12:47:07;5.90;;;5.05;;
32872;SDS011;19224;52.462;16.898;2022-07-23T12:49:37;6.05;;;4.60;;
32872;SDS011;19224;52.462;16.898;2022-07-23T12:52:15;4.78;;;4.37;;
32872;SDS011;19224;52.462;16.898;2022-07-23T12:54:50;4.92;;;4.42;;
32872;SDS011;19224;52.462;16.898;2022-07-23T12:57:44;5.95;;;4.37;;
32872;SDS011;19224;52.462;16.898;2022-07-23T13:00:19;5.30;;;4.80;;
32872;SDS011;19224;52.462;16.898;2022-07-23T13:02:54;7.55;;;5.35;;
32872;SDS011;19224;52.462;16.898;2022-07-23T13:05:25;4.83;;;4.33;;
32872;SDS011;19224;52.462;16.898;2022-07-23T13:07:55;5.17;;;4.67;;
32872;SDS011;19224;52.462;16.898;2022-07-23T13:10:25;7.05;;;4.40;;
32872;SDS011;19224;52.462;16.898;2022-07-23T13:12:56;8.85;;;4.75;;
32872;SDS011;19224;52.462;16.898;2022-07-23T13:15:26;6.60;;;4.45;;
32872;SDS011;19224;52.462;16.898;2022-07-23T13:17:57;4.60;;;4.17;;
32872;SDS011;19224;52.462;16.898;2022-07-23T13:20:28;4.78;;;4.28;;
32872;SDS011;19224;52.462;16.898;2022-07-23T13:23:01;7.45;;;4.60;;
32872;SDS011;19224;52.462;16.898;2022-07-23T13:25:34;10.78;;;4.67;;
32872;SDS011;19224;52.462;16.898;2022-07-23T13:28:06;8.58;;;4.72;;
32872;SDS011;19224;52.462;16.898;2022-07-23T13:30:41;7.25;;;5.20;;
32872;SDS011;19224;52.462;16.898;2022-07-23T13:33:13;5.50;;;5.00;;
32872;SDS011;19224;52.462;16.898;2022-07-23T13:35:48;5.45;;;4.95;;
32872;SDS011;19224;52.462;16.898;2022-07-23T13:38:20;7.40;;;5.00;;
32872;SDS011;19224;52.462;16.898;2022-07-23T13:40:52;7.33;;;5.22;;
32872;SDS011;19224;52.462;16.898;2022-07-23T13:43:24;7.40;;;5.08;;
32872;SDS011;19224;52.462;16.898;2022-07-23T13:45:55;9.03;;;5.47;;
32872;SDS011;19224;52.462;16.898;2022-07-23T13:48:29;7.35;;;5.78;;
32872;SDS011;19224;52.462;16.898;2022-07-23T13:51:00;7.15;;;6.35;;
32872;SDS011;19224;52.462;16.898;2022-07-23T13:53:31;7.47;;;6.40;;
32872;SDS011;19224;52.462;16.898;2022-07-23T13:56:02;11.80;;;9.00;;
32872;SDS011;19224;52.462;16.898;2022-07-23T13:58:33;7.37;;;6.65;;
32872;SDS011;19224;52.462;16.898;2022-07-23T14:01:05;11.08;;;6.83;;
32872;SDS011;19224;52.462;16.898;2022-07-23T14:03:35;8.28;;;7.28;;
32872;SDS011;19224;52.462;16.898;2022-07-23T14:06:05;9.03;;;7.33;;
32872;SDS011;19224;52.462;16.898;2022-07-23T14:08:37;9.38;;;8.38;;
32872;SDS011;19224;52.462;16.898;2022-07-23T14:11:08;9.28;;;8.28;;
32872;SDS011;19224;52.462;16.898;2022-07-23T14:13:41;9.73;;;8.73;;
32872;SDS011;19224;52.462;16.898;2022-07-23T14:16:11;10.98;;;8.60;;
32872;SDS011;19224;52.462;16.898;2022-07-23T14:18:44;10.58;;;9.48;;
32872;SDS011;19224;52.462;16.898;2022-07-23T14:21:15;12.10;;;10.30;;
32872;SDS011;19224;52.462;16.898;2022-07-23T14:23:46;11.55;;;10.18;;
32872;SDS011;19224;52.462;16.898;2022-07-23T14:26:16;12.28;;;11.03;;
32872;SDS011;19224;52.462;16.898;2022-07-23T14:28:48;11.95;;;10.10;;
32872;SDS011;19224;52.462;16.898;2022-07-23T14:31:19;10.90;;;9.48;;
32872;SDS011;19224;52.462;16.898;2022-07-23T14:33:50;12.37;;;10.05;;
32872;SDS011;19224;52.462;16.898;2022-07-23T14:36:20;10.68;;;9.60;;
32872;SDS011;19224;52.462;16.898;2022-07-23T14:38:51;13.28;;;9.78;;
32872;SDS011;19224;52.462;16.898;2022-07-23T14:41:22;10.30;;;8.88;;
32872;SDS011;19224;52.462;16.898;2022-07-23T14:43:55;10.70;;;7.70;;
32872;SDS011;19224;52.462;16.898;2022-07-23T14:46:25;6.78;;;6.10;;
32872;SDS011;19224;52.462;16.898;2022-07-23T14:48:57;7.72;;;5.70;;
32872;SDS011;19224;52.462;16.898;2022-07-23T14:51:27;7.80;;;6.47;;
32872;SDS011;19224;52.462;16.898;2022-07-23T14:53:58;6.35;;;5.25;;
32872;SDS011;19224;52.462;16.898;2022-07-23T14:56:28;5.97;;;4.92;;
32872;SDS011;19224;52.462;16.898;2022-07-23T14:59:03;7.60;;;5.33;;
32872;SDS011;19224;52.462;16.898;2022-07-23T15:01:34;5.47;;;4.85;;
32872;SDS011;19224;52.462;16.898;2022-07-23T15:04:05;5.60;;;5.10;;
32872;SDS011;19224;52.462;16.898;2022-07-23T15:06:36;5.22;;;4.72;;
32872;SDS011;19224;52.462;16.898;2022-07-23T15:09:06;8.70;;;4.78;;
32872;SDS011;19224;52.462;16.898;2022-07-23T15:11:38;5.60;;;5.10;;
32872;SDS011;19224;52.462;16.898;2022-07-23T15:14:09;11.55;;;5.08;;
32872;SDS011;19224;52.462;16.898;2022-07-23T15:16:40;5.55;;;4.92;;
32872;SDS011;19224;52.462;16.898;2022-07-23T15:19:11;6.83;;;5.40;;
32872;SDS011;19224;52.462;16.898;2022-07-23T15:21:42;5.45;;;4.95;;
32872;SDS011;19224;52.462;16.898;2022-07-23T15:24:13;7.37;;;4.90;;
32872;SDS011;19224;52.462;16.898;2022-07-23T15:26:43;6.65;;;5.83;;